sensor_id;sensor_type;location;lat;lon;timestamp;temperature;humidity
18950;DHT22;9608;49.288;8.130;2024-01-25T00:00:50;11.00;99.90
18950;DHT22;9608;49.288;8.130;2024-01-25T00:03:17;11.10;99.90
18950;DHT22;9608;49.288;8.130;2024-01-25T00:05:44;11.10;99.90
18950;DHT22;9608;49.288;8.130;2024-01-25T00:08:11;11.10;99.90
18950;DHT22;9608;49.288;8.130;2024-01-25T00:10:38;11.20;99.90
18950;DHT22;9608;49.288;8.130;2024-01-25T00:13:04;11.10;99.90
18950;DHT22;9608;49.288;8.130;2024-01-25T00:15:31;11.10;99.90
18950;DHT22;9608;49.288;8.130;2024-01-25T00:17:59;11.10;99.90
18950;DHT22;9608;49.288;8.130;2024-01-25T00:20:26;11.00;99.90
18950;DHT22;9608;49.288;8.130;2024-01-25T00:22:52;11.00;99.90
18950;DHT22;9608;49.288;8.130;2024-01-25T00:25:19;11.00;99.90
18950;DHT22;9608;49.288;8.130;2024-01-25T00:27:46;10.90;99.90
18950;DHT22;9608;49.288;8.130;2024-01-25T00:30:13;10.90;99.90
18950;DHT22;9608;49.288;8.130;2024-01-25T00:32:40;10.90;99.90
18950;DHT22;9608;49.288;8.130;2024-01-25T00:35:09;10.90;99.90
18950;DHT22;9608;49.288;8.130;2024-01-25T00:37:39;10.90;99.90
18950;DHT22;9608;49.288;8.130;2024-01-25T00:40:06;10.90;99.90
18950;DHT22;9608;49.288;8.130;2024-01-25T00:42:37;10.90;99.90
18950;DHT22;9608;49.288;8.130;2024-01-25T00:45:08;10.90;99.90
18950;DHT22;9608;49.288;8.130;2024-01-25T00:47:35;10.80;99.90
18950;DHT22;9608;49.288;8.130;2024-01-25T00:50:03;10.90;99.90
18950;DHT22;9608;49.288;8.130;2024-01-25T00:52:32;10.90;99.90
18950;DHT22;9608;49.288;8.130;2024-01-25T00:54:59;10.80;99.90
18950;DHT22;9608;49.288;8.130;2024-01-25T00:57:26;10.80;99.90
18950;DHT22;9608;49.288;8.130;2024-01-25T00:59:53;10.80;99.90
18950;DHT22;9608;49.288;8.130;2024-01-25T01:02:22;10.80;99.90
18950;DHT22;9608;49.288;8.130;2024-01-25T01:04:49;10.80;99.90
18950;DHT22;9608;49.288;8.130;2024-01-25T01:07:16;10.80;99.90
18950;DHT22;9608;49.288;8.130;2024-01-25T01:09:44;10.80;99.90
18950;DHT22;9608;49.288;8.130;2024-01-25T01:12:11;10.80;99.90
18950;DHT22;9608;49.288;8.130;2024-01-25T01:14:39;10.80;99.90
18950;DHT22;9608;49.288;8.130;2024-01-25T01:17:06;10.80;99.90
18950;DHT22;9608;49.288;8.130;2024-01-25T01:19:32;10.80;99.90
18950;DHT22;9608;49.288;8.130;2024-01-25T01:21:59;10.80;99.90
18950;DHT22;9608;49.288;8.130;2024-01-25T01:24:26;10.80;99.90
18950;DHT22;9608;49.288;8.130;2024-01-25T01:26:54;10.70;99.90
18950;DHT22;9608;49.288;8.130;2024-01-25T01:29:21;10.70;99.90
18950;DHT22;9608;49.288;8.130;2024-01-25T01:31:47;10.70;99.90
18950;DHT22;9608;49.288;8.130;2024-01-25T01:34:14;10.70;99.90
18950;DHT22;9608;49.288;8.130;2024-01-25T01:36:43;10.60;99.90
18950;DHT22;9608;49.288;8.130;2024-01-25T01:39:10;10.60;99.90
18950;DHT22;9608;49.288;8.130;2024-01-25T01:41:36;10.50;99.90
18950;DHT22;9608;49.288;8.130;2024-01-25T01:44:05;10.60;99.90
18950;DHT22;9608;49.288;8.130;2024-01-25T01:46:33;10.50;99.90
18950;DHT22;9608;49.288;8.130;2024-01-25T01:49:00;10.60;99.90
18950;DHT22;9608;49.288;8.130;2024-01-25T01:51:28;10.70;99.90
18950;DHT22;9608;49.288;8.130;2024-01-25T01:53:56;10.60;99.90
18950;DHT22;9608;49.288;8.130;2024-01-25T01:56:24;10.60;99.90
18950;DHT22;9608;49.288;8.130;2024-01-25T01:58:52;10.60;99.90
18950;DHT22;9608;49.288;8.130;2024-01-25T02:01:22;10.60;99.90
18950;DHT22;9608;49.288;8.130;2024-01-25T02:03:49;10.50;99.90
18950;DHT22;9608;49.288;8.130;2024-01-25T02:06:16;10.60;99.90
18950;DHT22;9608;49.288;8.130;2024-01-25T02:08:42;10.70;99.90
18950;DHT22;9608;49.288;8.130;2024-01-25T02:11:11;10.80;99.90
18950;DHT22;9608;49.288;8.130;2024-01-25T02:13:38;10.90;99.90
18950;DHT22;9608;49.288;8.130;2024-01-25T02:16:05;11.00;99.90
18950;DHT22;9608;49.288;8.130;2024-01-25T02:18:35;11.00;99.90
18950;DHT22;9608;49.288;8.130;2024-01-25T02:21:02;11.00;99.90
18950;DHT22;9608;49.288;8.130;2024-01-25T02:23:30;11.00;99.90
18950;DHT22;9608;49.288;8.130;2024-01-25T02:25:57;11.00;99.90
18950;DHT22;9608;49.288;8.130;2024-01-25T02:28:24;11.00;99.90
18950;DHT22;9608;49.288;8.130;2024-01-25T02:30:50;10.90;99.90
18950;DHT22;9608;49.288;8.130;2024-01-25T02:33:17;10.90;99.90
18950;DHT22;9608;49.288;8.130;2024-01-25T02:35:44;10.70;99.90
18950;DHT22;9608;49.288;8.130;2024-01-25T02:38:10;10.70;99.90
18950;DHT22;9608;49.288;8.130;2024-01-25T02:40:38;10.60;99.90
18950;DHT22;9608;49.288;8.130;2024-01-25T02:43:08;10.50;99.90
18950;DHT22;9608;49.288;8.130;2024-01-25T02:45:35;10.50;99.90
18950;DHT22;9608;49.288;8.130;2024-01-25T02:48:02;10.40;99.90
18950;DHT22;9608;49.288;8.130;2024-01-25T02:50:29;10.20;99.90
18950;DHT22;9608;49.288;8.130;2024-01-25T02:52:56;10.10;99.90
18950;DHT22;9608;49.288;8.130;2024-01-25T02:55:23;10.00;99.90
18950;DHT22;9608;49.288;8.130;2024-01-25T02:57:51;9.90;99.90
18950;DHT22;9608;49.288;8.130;2024-01-25T03:00:18;9.90;99.90
18950;DHT22;9608;49.288;8.130;2024-01-25T03:02:45;9.90;99.90
18950;DHT22;9608;49.288;8.130;2024-01-25T03:05:11;9.90;99.90
18950;DHT22;9608;49.288;8.130;2024-01-25T03:07:38;9.90;99.90
18950;DHT22;9608;49.288;8.130;2024-01-25T03:10:06;9.90;99.90
18950;DHT22;9608;49.288;8.130;2024-01-25T03:12:33;10.00;99.90
18950;DHT22;9608;49.288;8.130;2024-01-25T03:15:01;9.90;99.90
18950;DHT22;9608;49.288;8.130;2024-01-25T03:17:28;10.00;99.90
18950;DHT22;9608;49.288;8.130;2024-01-25T03:19:54;10.00;99.90
18950;DHT22;9608;49.288;8.130;2024-01-25T03:22:21;10.00;99.90
18950;DHT22;9608;49.288;8.130;2024-01-25T03:24:48;10.10;99.90
18950;DHT22;9608;49.288;8.130;2024-01-25T03:27:15;10.00;99.90
18950;DHT22;9608;49.288;8.130;2024-01-25T03:29:42;10.10;99.90
18950;DHT22;9608;49.288;8.130;2024-01-25T03:32:10;10.10;99.90
18950;DHT22;9608;49.288;8.130;2024-01-25T03:34:37;10.10;99.90
18950;DHT22;9608;49.288;8.130;2024-01-25T03:37:03;10.00;99.90
18950;DHT22;9608;49.288;8.130;2024-01-25T03:39:30;10.00;99.90
18950;DHT22;9608;49.288;8.130;2024-01-25T03:41:57;10.00;99.90
18950;DHT22;9608;49.288;8.130;2024-01-25T03:44:24;10.00;99.90
18950;DHT22;9608;49.288;8.130;2024-01-25T03:46:50;10.00;99.90
18950;DHT22;9608;49.288;8.130;2024-01-25T03:49:18;9.90;99.90
18950;DHT22;9608;49.288;8.130;2024-01-25T03:51:48;9.90;99.90
18950;DHT22;9608;49.288;8.130;2024-01-25T03:54:15;9.90;99.90
18950;DHT22;9608;49.288;8.130;2024-01-25T03:56:42;9.90;99.90
18950;DHT22;9608;49.288;8.130;2024-01-25T03:59:08;9.90;99.90
18950;DHT22;9608;49.288;8.130;2024-01-25T04:01:41;9.90;99.90
18950;DHT22;9608;49.288;8.130;2024-01-25T04:04:09;9.90;99.90
18950;DHT22;9608;49.288;8.130;2024-01-25T04:06:37;9.90;99.90
18950;DHT22;9608;49.288;8.130;2024-01-25T04:09:05;9.90;99.90
18950;DHT22;9608;49.288;8.130;2024-01-25T04:11:31;9.90;99.90
18950;DHT22;9608;49.288;8.130;2024-01-25T04:13:58;9.80;99.90
18950;DHT22;9608;49.288;8.130;2024-01-25T04:16:26;9.80;99.90
18950;DHT22;9608;49.288;8.130;2024-01-25T04:18:53;9.70;99.90
18950;DHT22;9608;49.288;8.130;2024-01-25T04:21:19;9.70;99.90
18950;DHT22;9608;49.288;8.130;2024-01-25T04:23:48;9.60;99.90
18950;DHT22;9608;49.288;8.130;2024-01-25T04:26:15;9.60;99.90
18950;DHT22;9608;49.288;8.130;2024-01-25T04:28:42;9.50;99.90
18950;DHT22;9608;49.288;8.130;2024-01-25T04:31:09;9.50;99.90
18950;DHT22;9608;49.288;8.130;2024-01-25T04:33:38;9.50;99.90
18950;DHT22;9608;49.288;8.130;2024-01-25T04:36:05;9.50;99.90
18950;DHT22;9608;49.288;8.130;2024-01-25T04:38:32;9.40;99.90
18950;DHT22;9608;49.288;8.130;2024-01-25T04:41:00;9.40;99.90
18950;DHT22;9608;49.288;8.130;2024-01-25T04:43:27;9.30;99.90
18950;DHT22;9608;49.288;8.130;2024-01-25T04:45:54;9.30;99.90
18950;DHT22;9608;49.288;8.130;2024-01-25T04:48:20;9.20;99.90
18950;DHT22;9608;49.288;8.130;2024-01-25T04:50:47;9.20;99.90
18950;DHT22;9608;49.288;8.130;2024-01-25T04:53:14;9.20;99.90
18950;DHT22;9608;49.288;8.130;2024-01-25T04:55:40;9.10;99.90
18950;DHT22;9608;49.288;8.130;2024-01-25T04:58:08;9.10;99.90
18950;DHT22;9608;49.288;8.130;2024-01-25T05:00:39;9.10;99.90
18950;DHT22;9608;49.288;8.130;2024-01-25T05:03:06;9.00;99.90
18950;DHT22;9608;49.288;8.130;2024-01-25T05:05:33;9.00;99.90
18950;DHT22;9608;49.288;8.130;2024-01-25T05:07:59;9.00;99.90
18950;DHT22;9608;49.288;8.130;2024-01-25T05:10:26;8.90;99.90
18950;DHT22;9608;49.288;8.130;2024-01-25T05:12:53;8.90;99.90
18950;DHT22;9608;49.288;8.130;2024-01-25T05:15:21;8.90;99.90
18950;DHT22;9608;49.288;8.130;2024-01-25T05:17:48;8.80;99.90
18950;DHT22;9608;49.288;8.130;2024-01-25T05:20:14;8.80;99.90
18950;DHT22;9608;49.288;8.130;2024-01-25T05:22:43;8.80;99.90
18950;DHT22;9608;49.288;8.130;2024-01-25T05:25:11;8.70;99.90
18950;DHT22;9608;49.288;8.130;2024-01-25T05:27:38;8.60;99.90
18950;DHT22;9608;49.288;8.130;2024-01-25T05:30:06;8.60;99.90
18950;DHT22;9608;49.288;8.130;2024-01-25T05:32:34;8.60;99.90
18950;DHT22;9608;49.288;8.130;2024-01-25T05:35:01;8.50;99.90
18950;DHT22;9608;49.288;8.130;2024-01-25T05:37:28;8.50;99.90
18950;DHT22;9608;49.288;8.130;2024-01-25T05:39:54;8.50;99.90
18950;DHT22;9608;49.288;8.130;2024-01-25T05:42:21;8.50;99.90
18950;DHT22;9608;49.288;8.130;2024-01-25T05:44:48;8.30;99.90
18950;DHT22;9608;49.288;8.130;2024-01-25T05:47:14;8.30;99.90
18950;DHT22;9608;49.288;8.130;2024-01-25T05:49:43;8.20;99.90
18950;DHT22;9608;49.288;8.130;2024-01-25T05:52:10;8.10;99.90
18950;DHT22;9608;49.288;8.130;2024-01-25T05:54:36;8.00;99.90
18950;DHT22;9608;49.288;8.130;2024-01-25T05:57:04;7.90;99.90
18950;DHT22;9608;49.288;8.130;2024-01-25T05:59:30;7.80;99.90
18950;DHT22;9608;49.288;8.130;2024-01-25T06:01:57;7.70;99.90
18950;DHT22;9608;49.288;8.130;2024-01-25T06:04:24;7.60;99.90
18950;DHT22;9608;49.288;8.130;2024-01-25T06:06:52;7.50;99.90
18950;DHT22;9608;49.288;8.130;2024-01-25T06:09:19;7.40;99.90
18950;DHT22;9608;49.288;8.130;2024-01-25T06:11:45;7.50;99.90
18950;DHT22;9608;49.288;8.130;2024-01-25T06:14:12;7.40;99.90
18950;DHT22;9608;49.288;8.130;2024-01-25T06:16:39;7.40;99.90
18950;DHT22;9608;49.288;8.130;2024-01-25T06:19:06;7.40;99.90
18950;DHT22;9608;49.288;8.130;2024-01-25T06:21:33;7.30;99.90
18950;DHT22;9608;49.288;8.130;2024-01-25T06:24:02;7.30;99.90
18950;DHT22;9608;49.288;8.130;2024-01-25T06:26:29;7.20;99.90
18950;DHT22;9608;49.288;8.130;2024-01-25T06:28:56;7.20;99.90
18950;DHT22;9608;49.288;8.130;2024-01-25T06:31:23;7.30;99.90
18950;DHT22;9608;49.288;8.130;2024-01-25T06:33:50;7.20;99.90
18950;DHT22;9608;49.288;8.130;2024-01-25T06:36:18;7.30;99.90
18950;DHT22;9608;49.288;8.130;2024-01-25T06:38:45;7.20;99.90
18950;DHT22;9608;49.288;8.130;2024-01-25T06:41:13;7.10;99.90
18950;DHT22;9608;49.288;8.130;2024-01-25T06:43:40;7.10;99.90
18950;DHT22;9608;49.288;8.130;2024-01-25T06:46:07;7.00;99.90
18950;DHT22;9608;49.288;8.130;2024-01-25T06:48:34;6.80;99.90
18950;DHT22;9608;49.288;8.130;2024-01-25T06:51:01;6.60;99.90
18950;DHT22;9608;49.288;8.130;2024-01-25T06:53:28;6.50;99.90
18950;DHT22;9608;49.288;8.130;2024-01-25T06:55:55;6.50;99.90
18950;DHT22;9608;49.288;8.130;2024-01-25T06:58:23;6.40;99.90
18950;DHT22;9608;49.288;8.130;2024-01-25T07:00:53;6.40;99.90
18950;DHT22;9608;49.288;8.130;2024-01-25T07:54:19;7.20;99.90
18950;DHT22;9608;49.288;8.130;2024-01-25T07:56:46;7.30;99.90
18950;DHT22;9608;49.288;8.130;2024-01-25T07:59:14;7.40;99.90
18950;DHT22;9608;49.288;8.130;2024-01-25T08:01:41;7.50;99.90
18950;DHT22;9608;49.288;8.130;2024-01-25T08:04:09;7.60;99.90
18950;DHT22;9608;49.288;8.130;2024-01-25T08:06:37;7.60;99.90
18950;DHT22;9608;49.288;8.130;2024-01-25T08:15:58;7.90;99.90
18950;DHT22;9608;49.288;8.130;2024-01-25T08:26:12;8.20;99.90
18950;DHT22;9608;49.288;8.130;2024-01-25T08:28:40;8.20;99.90
18950;DHT22;9608;49.288;8.130;2024-01-25T08:36:21;8.60;99.90
18950;DHT22;9608;49.288;8.130;2024-01-25T08:38:48;8.70;99.90
18950;DHT22;9608;49.288;8.130;2024-01-25T08:41:15;8.70;99.90
18950;DHT22;9608;49.288;8.130;2024-01-25T08:43:42;8.90;99.90
18950;DHT22;9608;49.288;8.130;2024-01-25T08:46:08;8.90;99.90
18950;DHT22;9608;49.288;8.130;2024-01-25T08:48:35;9.00;99.90
18950;DHT22;9608;49.288;8.130;2024-01-25T08:51:03;9.20;99.90
18950;DHT22;9608;49.288;8.130;2024-01-25T08:53:31;9.30;99.90
18950;DHT22;9608;49.288;8.130;2024-01-25T08:55:59;9.50;99.90
18950;DHT22;9608;49.288;8.130;2024-01-25T08:58:26;9.70;99.90
18950;DHT22;9608;49.288;8.130;2024-01-25T09:00:53;9.50;99.90
18950;DHT22;9608;49.288;8.130;2024-01-25T09:03:22;9.40;99.90
18950;DHT22;9608;49.288;8.130;2024-01-25T09:05:49;9.40;99.90
18950;DHT22;9608;49.288;8.130;2024-01-25T09:08:16;9.50;99.90
18950;DHT22;9608;49.288;8.130;2024-01-25T09:10:44;9.60;99.90
18950;DHT22;9608;49.288;8.130;2024-01-25T09:13:11;9.80;99.90
18950;DHT22;9608;49.288;8.130;2024-01-25T09:15:38;10.00;99.90
18950;DHT22;9608;49.288;8.130;2024-01-25T09:18:06;10.10;99.90
18950;DHT22;9608;49.288;8.130;2024-01-25T09:20:33;10.20;99.90
18950;DHT22;9608;49.288;8.130;2024-01-25T09:23:01;10.30;99.90
18950;DHT22;9608;49.288;8.130;2024-01-25T09:25:29;10.20;99.90
18950;DHT22;9608;49.288;8.130;2024-01-25T09:27:57;10.30;99.90
18950;DHT22;9608;49.288;8.130;2024-01-25T09:30:24;10.50;99.90
18950;DHT22;9608;49.288;8.130;2024-01-25T09:32:52;10.70;99.90
18950;DHT22;9608;49.288;8.130;2024-01-25T09:35:19;10.80;99.90
18950;DHT22;9608;49.288;8.130;2024-01-25T09:37:46;10.80;99.90
18950;DHT22;9608;49.288;8.130;2024-01-25T09:40:13;11.00;99.90
18950;DHT22;9608;49.288;8.130;2024-01-25T09:42:40;11.10;99.90
18950;DHT22;9608;49.288;8.130;2024-01-25T09:45:11;11.00;99.90
18950;DHT22;9608;49.288;8.130;2024-01-25T09:47:43;10.90;99.90
18950;DHT22;9608;49.288;8.130;2024-01-25T09:50:10;10.90;99.90
18950;DHT22;9608;49.288;8.130;2024-01-25T09:52:38;10.90;99.90
18950;DHT22;9608;49.288;8.130;2024-01-25T09:55:07;10.90;99.90
18950;DHT22;9608;49.288;8.130;2024-01-25T09:57:35;11.10;99.90
18950;DHT22;9608;49.288;8.130;2024-01-25T10:00:04;11.20;99.90
18950;DHT22;9608;49.288;8.130;2024-01-25T10:02:33;11.30;99.90
18950;DHT22;9608;49.288;8.130;2024-01-25T10:05:00;11.40;99.90
18950;DHT22;9608;49.288;8.130;2024-01-25T10:07:38;11.60;99.90
18950;DHT22;9608;49.288;8.130;2024-01-25T10:10:06;11.60;99.90
18950;DHT22;9608;49.288;8.130;2024-01-25T10:12:33;11.70;99.90
18950;DHT22;9608;49.288;8.130;2024-01-25T10:15:02;11.80;99.90
18950;DHT22;9608;49.288;8.130;2024-01-25T10:17:33;11.80;99.90
18950;DHT22;9608;49.288;8.130;2024-01-25T10:20:00;11.80;99.90
18950;DHT22;9608;49.288;8.130;2024-01-25T10:22:28;12.00;99.90
18950;DHT22;9608;49.288;8.130;2024-01-25T10:24:55;12.10;99.90
18950;DHT22;9608;49.288;8.130;2024-01-25T10:27:22;12.10;99.90
18950;DHT22;9608;49.288;8.130;2024-01-25T10:29:51;12.10;99.90
18950;DHT22;9608;49.288;8.130;2024-01-25T10:32:19;12.10;99.90
18950;DHT22;9608;49.288;8.130;2024-01-25T10:34:47;12.30;99.90
18950;DHT22;9608;49.288;8.130;2024-01-25T10:37:15;12.40;99.90
18950;DHT22;9608;49.288;8.130;2024-01-25T10:39:44;12.50;99.90
18950;DHT22;9608;49.288;8.130;2024-01-25T10:42:11;12.70;99.90
18950;DHT22;9608;49.288;8.130;2024-01-25T10:44:38;12.70;99.90
18950;DHT22;9608;49.288;8.130;2024-01-25T10:47:06;12.80;99.90
18950;DHT22;9608;49.288;8.130;2024-01-25T10:49:34;12.50;99.90
18950;DHT22;9608;49.288;8.130;2024-01-25T10:52:04;12.30;99.90
18950;DHT22;9608;49.288;8.130;2024-01-25T10:54:32;12.30;99.90
18950;DHT22;9608;49.288;8.130;2024-01-25T10:56:59;12.30;99.90
18950;DHT22;9608;49.288;8.130;2024-01-25T10:59:28;12.40;99.90
18950;DHT22;9608;49.288;8.130;2024-01-25T11:01:55;12.50;99.90
18950;DHT22;9608;49.288;8.130;2024-01-25T11:04:22;12.60;99.90
18950;DHT22;9608;49.288;8.130;2024-01-25T11:06:51;12.80;99.90
18950;DHT22;9608;49.288;8.130;2024-01-25T11:09:20;12.80;99.90
18950;DHT22;9608;49.288;8.130;2024-01-25T11:11:48;12.80;99.90
18950;DHT22;9608;49.288;8.130;2024-01-25T11:14:15;12.80;99.90
18950;DHT22;9608;49.288;8.130;2024-01-25T11:16:43;12.90;99.90
18950;DHT22;9608;49.288;8.130;2024-01-25T11:19:17;12.70;99.90
18950;DHT22;9608;49.288;8.130;2024-01-25T11:21:46;12.90;99.90
18950;DHT22;9608;49.288;8.130;2024-01-25T11:24:13;13.10;99.90
18950;DHT22;9608;49.288;8.130;2024-01-25T11:26:42;13.10;99.90
18950;DHT22;9608;49.288;8.130;2024-01-25T11:29:13;13.10;99.90
18950;DHT22;9608;49.288;8.130;2024-01-25T11:31:42;13.10;99.90
18950;DHT22;9608;49.288;8.130;2024-01-25T11:34:10;13.10;99.90
18950;DHT22;9608;49.288;8.130;2024-01-25T11:36:37;13.00;99.90
18950;DHT22;9608;49.288;8.130;2024-01-25T11:39:04;12.90;99.90
18950;DHT22;9608;49.288;8.130;2024-01-25T11:41:32;12.70;99.90
18950;DHT22;9608;49.288;8.130;2024-01-25T11:44:01;12.80;99.90
18950;DHT22;9608;49.288;8.130;2024-01-25T11:46:28;12.90;99.90
18950;DHT22;9608;49.288;8.130;2024-01-25T11:48:55;12.80;99.90
18950;DHT22;9608;49.288;8.130;2024-01-25T11:51:22;12.80;99.90
18950;DHT22;9608;49.288;8.130;2024-01-25T11:53:49;12.90;99.90
18950;DHT22;9608;49.288;8.130;2024-01-25T11:56:19;13.00;99.90
18950;DHT22;9608;49.288;8.130;2024-01-25T11:58:47;12.90;99.90
18950;DHT22;9608;49.288;8.130;2024-01-25T12:01:16;12.70;99.90
18950;DHT22;9608;49.288;8.130;2024-01-25T12:03:43;12.90;99.90
18950;DHT22;9608;49.288;8.130;2024-01-25T12:06:09;13.00;99.90
18950;DHT22;9608;49.288;8.130;2024-01-25T12:08:36;13.00;99.90
18950;DHT22;9608;49.288;8.130;2024-01-25T12:11:05;12.90;99.90
18950;DHT22;9608;49.288;8.130;2024-01-25T12:13:33;12.80;99.90
18950;DHT22;9608;49.288;8.130;2024-01-25T12:16:03;12.80;99.90
18950;DHT22;9608;49.288;8.130;2024-01-25T12:18:31;12.70;99.90
18950;DHT22;9608;49.288;8.130;2024-01-25T12:21:02;12.70;99.90
18950;DHT22;9608;49.288;8.130;2024-01-25T12:23:32;12.70;99.90
18950;DHT22;9608;49.288;8.130;2024-01-25T12:26:00;12.90;99.90
18950;DHT22;9608;49.288;8.130;2024-01-25T12:28:33;12.80;99.90
18950;DHT22;9608;49.288;8.130;2024-01-25T12:31:01;12.80;99.90
18950;DHT22;9608;49.288;8.130;2024-01-25T12:33:29;12.60;99.90
18950;DHT22;9608;49.288;8.130;2024-01-25T12:35:57;12.60;99.90
18950;DHT22;9608;49.288;8.130;2024-01-25T12:38:24;12.70;99.90
18950;DHT22;9608;49.288;8.130;2024-01-25T12:40:52;12.70;99.90
18950;DHT22;9608;49.288;8.130;2024-01-25T12:43:19;12.80;99.90
18950;DHT22;9608;49.288;8.130;2024-01-25T12:45:47;12.60;99.90
18950;DHT22;9608;49.288;8.130;2024-01-25T12:48:14;12.60;99.90
18950;DHT22;9608;49.288;8.130;2024-01-25T12:50:41;12.50;99.90
18950;DHT22;9608;49.288;8.130;2024-01-25T12:53:10;12.30;99.90
18950;DHT22;9608;49.288;8.130;2024-01-25T12:55:38;12.20;99.90
18950;DHT22;9608;49.288;8.130;2024-01-25T12:58:04;12.20;99.90
18950;DHT22;9608;49.288;8.130;2024-01-25T13:00:31;12.30;99.90
18950;DHT22;9608;49.288;8.130;2024-01-25T13:02:58;12.50;99.90
18950;DHT22;9608;49.288;8.130;2024-01-25T13:05:27;12.70;99.90
18950;DHT22;9608;49.288;8.130;2024-01-25T13:07:54;12.30;99.90
18950;DHT22;9608;49.288;8.130;2024-01-25T13:10:22;12.00;99.90
18950;DHT22;9608;49.288;8.130;2024-01-25T13:12:49;11.90;99.90
18950;DHT22;9608;49.288;8.130;2024-01-25T13:15:16;11.80;99.90
18950;DHT22;9608;49.288;8.130;2024-01-25T13:20:11;11.60;99.90
18950;DHT22;9608;49.288;8.130;2024-01-25T13:22:38;11.60;99.90
18950;DHT22;9608;49.288;8.130;2024-01-25T13:25:05;11.70;99.90
18950;DHT22;9608;49.288;8.130;2024-01-25T13:27:33;11.80;99.90
18950;DHT22;9608;49.288;8.130;2024-01-25T13:30:00;11.70;99.90
18950;DHT22;9608;49.288;8.130;2024-01-25T13:32:27;11.70;99.90
18950;DHT22;9608;49.288;8.130;2024-01-25T13:34:54;11.80;99.90
18950;DHT22;9608;49.288;8.130;2024-01-25T13:37:20;11.80;99.90
18950;DHT22;9608;49.288;8.130;2024-01-25T13:39:48;11.80;99.90
18950;DHT22;9608;49.288;8.130;2024-01-25T13:42:14;11.90;99.90
18950;DHT22;9608;49.288;8.130;2024-01-25T13:44:44;11.80;99.90
18950;DHT22;9608;49.288;8.130;2024-01-25T13:47:10;11.70;99.90
18950;DHT22;9608;49.288;8.130;2024-01-25T13:49:37;11.70;99.90
18950;DHT22;9608;49.288;8.130;2024-01-25T13:52:04;11.80;99.90
18950;DHT22;9608;49.288;8.130;2024-01-25T13:54:31;11.80;99.90
18950;DHT22;9608;49.288;8.130;2024-01-25T13:56:58;12.00;99.90
18950;DHT22;9608;49.288;8.130;2024-01-25T13:59:25;11.80;99.90
18950;DHT22;9608;49.288;8.130;2024-01-25T14:01:53;11.60;99.90
18950;DHT22;9608;49.288;8.130;2024-01-25T14:04:20;11.60;99.90
18950;DHT22;9608;49.288;8.130;2024-01-25T14:06:47;11.70;99.90
18950;DHT22;9608;49.288;8.130;2024-01-25T14:09:13;11.70;99.90
18950;DHT22;9608;49.288;8.130;2024-01-25T14:11:40;11.80;99.90
18950;DHT22;9608;49.288;8.130;2024-01-25T14:14:07;11.90;99.90
18950;DHT22;9608;49.288;8.130;2024-01-25T14:16:36;11.90;99.90
18950;DHT22;9608;49.288;8.130;2024-01-25T14:19:04;11.80;99.90
18950;DHT22;9608;49.288;8.130;2024-01-25T14:21:32;11.80;99.90
18950;DHT22;9608;49.288;8.130;2024-01-25T14:23:58;11.80;99.90
18950;DHT22;9608;49.288;8.130;2024-01-25T14:26:25;11.70;99.90
18950;DHT22;9608;49.288;8.130;2024-01-25T14:28:52;11.80;99.90
18950;DHT22;9608;49.288;8.130;2024-01-25T14:31:19;11.90;99.90
18950;DHT22;9608;49.288;8.130;2024-01-25T14:33:46;11.90;99.90
18950;DHT22;9608;49.288;8.130;2024-01-25T14:36:14;11.90;99.90
18950;DHT22;9608;49.288;8.130;2024-01-25T14:38:40;11.90;99.90
18950;DHT22;9608;49.288;8.130;2024-01-25T14:41:08;11.80;99.90
18950;DHT22;9608;49.288;8.130;2024-01-25T14:43:37;11.70;99.90
18950;DHT22;9608;49.288;8.130;2024-01-25T14:46:04;11.70;99.90
18950;DHT22;9608;49.288;8.130;2024-01-25T14:48:31;11.70;99.90
18950;DHT22;9608;49.288;8.130;2024-01-25T14:50:59;11.70;99.90
18950;DHT22;9608;49.288;8.130;2024-01-25T14:53:27;11.60;99.90
18950;DHT22;9608;49.288;8.130;2024-01-25T14:55:54;11.50;99.90
18950;DHT22;9608;49.288;8.130;2024-01-25T14:58:22;11.50;99.90
18950;DHT22;9608;49.288;8.130;2024-01-25T15:00:49;11.50;99.90
18950;DHT22;9608;49.288;8.130;2024-01-25T15:03:16;11.60;99.90
18950;DHT22;9608;49.288;8.130;2024-01-25T15:05:44;11.60;99.90
18950;DHT22;9608;49.288;8.130;2024-01-25T15:08:11;11.60;99.90
18950;DHT22;9608;49.288;8.130;2024-01-25T15:10:39;11.50;99.90
18950;DHT22;9608;49.288;8.130;2024-01-25T15:13:07;11.50;99.90
18950;DHT22;9608;49.288;8.130;2024-01-25T15:15:33;11.40;99.90
18950;DHT22;9608;49.288;8.130;2024-01-25T15:18:00;11.40;99.90
18950;DHT22;9608;49.288;8.130;2024-01-25T15:20:28;11.40;99.90
18950;DHT22;9608;49.288;8.130;2024-01-25T15:22:57;11.50;99.90
18950;DHT22;9608;49.288;8.130;2024-01-25T15:25:25;11.60;99.90
18950;DHT22;9608;49.288;8.130;2024-01-25T15:27:54;11.60;99.90
18950;DHT22;9608;49.288;8.130;2024-01-25T15:30:21;11.50;99.90
18950;DHT22;9608;49.288;8.130;2024-01-25T15:32:47;11.40;99.90
18950;DHT22;9608;49.288;8.130;2024-01-25T15:35:14;11.50;99.90
18950;DHT22;9608;49.288;8.130;2024-01-25T15:37:41;11.40;99.90
18950;DHT22;9608;49.288;8.130;2024-01-25T15:40:08;11.00;99.90
18950;DHT22;9608;49.288;8.130;2024-01-25T15:42:38;10.90;99.90
18950;DHT22;9608;49.288;8.130;2024-01-25T15:45:06;10.80;99.90
18950;DHT22;9608;49.288;8.130;2024-01-25T15:47:33;10.90;99.90
18950;DHT22;9608;49.288;8.130;2024-01-25T15:50:00;11.00;99.90
18950;DHT22;9608;49.288;8.130;2024-01-25T15:52:30;11.00;99.90
18950;DHT22;9608;49.288;8.130;2024-01-25T15:54:57;11.00;99.90
18950;DHT22;9608;49.288;8.130;2024-01-25T15:57:24;10.90;99.90
18950;DHT22;9608;49.288;8.130;2024-01-25T15:59:50;11.10;99.90
18950;DHT22;9608;49.288;8.130;2024-01-25T16:02:18;11.00;99.90
18950;DHT22;9608;49.288;8.130;2024-01-25T16:04:45;11.00;99.90
18950;DHT22;9608;49.288;8.130;2024-01-25T16:07:12;11.00;99.90
18950;DHT22;9608;49.288;8.130;2024-01-25T16:09:39;11.00;99.90
18950;DHT22;9608;49.288;8.130;2024-01-25T16:12:08;11.00;99.90
18950;DHT22;9608;49.288;8.130;2024-01-25T16:14:35;11.10;99.90
18950;DHT22;9608;49.288;8.130;2024-01-25T16:17:02;11.40;99.90
18950;DHT22;9608;49.288;8.130;2024-01-25T16:19:31;11.50;99.90
18950;DHT22;9608;49.288;8.130;2024-01-25T16:21:57;11.50;99.90
18950;DHT22;9608;49.288;8.130;2024-01-25T16:24:24;11.60;99.90
18950;DHT22;9608;49.288;8.130;2024-01-25T16:26:51;11.60;99.90
18950;DHT22;9608;49.288;8.130;2024-01-25T16:29:17;11.60;99.90
18950;DHT22;9608;49.288;8.130;2024-01-25T16:31:44;11.70;99.90
18950;DHT22;9608;49.288;8.130;2024-01-25T16:34:11;11.60;99.90
18950;DHT22;9608;49.288;8.130;2024-01-25T16:36:40;11.60;99.90
18950;DHT22;9608;49.288;8.130;2024-01-25T16:39:06;11.60;99.90
18950;DHT22;9608;49.288;8.130;2024-01-25T16:41:33;11.50;99.90
18950;DHT22;9608;49.288;8.130;2024-01-25T16:44:00;11.50;99.90
18950;DHT22;9608;49.288;8.130;2024-01-25T16:46:27;11.60;99.90
18950;DHT22;9608;49.288;8.130;2024-01-25T16:48:55;11.60;99.90
18950;DHT22;9608;49.288;8.130;2024-01-25T16:51:22;11.50;99.90
18950;DHT22;9608;49.288;8.130;2024-01-25T16:53:50;11.40;99.90
18950;DHT22;9608;49.288;8.130;2024-01-25T16:56:17;11.30;99.90
18950;DHT22;9608;49.288;8.130;2024-01-25T16:58:43;11.20;99.90
18950;DHT22;9608;49.288;8.130;2024-01-25T17:01:10;11.10;99.90
18950;DHT22;9608;49.288;8.130;2024-01-25T17:03:37;11.00;99.90